Time;durP1;ratioP1;P1;durP2;ratioP2;P2;SDS_P1;SDS_P2;PMS_P1;PMS_P2;Temp;Humidity;BMP_temperature;BMP_pressure;BME280_temperature;BME280_humidity;BME280_pressure;Samples;Min_cycle;Max_cycle;Signal;HPM_P1;HPM_P2
2023/07/29 00:00:02;;;;;;;0.70;0.50;;;;;;;;;;20938756;28;20708;-69
2023/07/29 00:10:14;;;;;;;0.70;0.50;;;;;;;;;;20909346;28;20287;-69
2023/07/29 00:20:16;;;;;;;1.00;0.60;;;;;;;;;;20914620;28;20597;-69
2023/07/29 00:30:19;;;;;;;0.93;0.57;;;;;;;;;;20952407;28;20244;-69
2023/07/29 00:40:22;;;;;;;0.57;0.50;;;;;;;;;;20856157;22;20227;-73
2023/07/29 00:50:24;;;;;;;0.50;0.40;;;;;;;;;;20644167;28;20790;-73
2023/07/29 01:00:25;;;;;;;1.10;0.60;;;;;;;;;;20558603;28;20246;-73
2023/07/29 01:10:56;;;;;;;0.93;0.70;;;;;;;;;;20557900;28;20709;-73
2023/07/29 01:21:01;;;;;;;2.90;1.30;;;19.60;99.90;;;;;;20565297;28;20227;-72
2023/07/29 01:31:30;;;;;;;1.57;0.60;;;19.40;99.90;;;;;;20569815;28;20285;-72
2023/07/29 01:41:33;;;;;;;0.87;0.60;;;19.40;99.90;;;;;;20573109;28;20219;-73
2023/07/29 01:51:34;;;;;;;1.97;0.60;;;;;;;;;;20569252;28;20743;-73
2023/07/29 02:01:36;;;;;;;0.60;0.40;;;;;;;;;;20572954;28;20222;-73
2023/07/29 02:11:38;;;;;;;1.37;0.60;;;;;;;;;;20554655;28;20318;-73
2023/07/29 02:21:40;;;;;;;0.80;0.50;;;;;;;;;;20554138;28;20234;-73
2023/07/29 02:31:44;;;;;;;1.20;0.60;;;;;;;;;;20576970;28;20807;-73
2023/07/29 02:41:45;;;;;;;0.60;0.43;;;;;;;;;;20568139;28;20223;-73
2023/07/29 02:51:47;;;;;;;1.07;0.70;;;;;;;;;;20580999;28;20235;-73
2023/07/29 03:01:49;;;;;;;0.70;0.50;;;;;;;;;;20568816;28;20253;-73
2023/07/29 03:11:52;;;;;;;1.77;0.60;;;;;;;;;;20566914;28;20235;-72
2023/07/29 03:21:54;;;;;;;0.70;0.50;;;;;;;;;;20582506;28;20282;-74
2023/07/29 03:31:56;;;;;;;1.00;0.60;;;;;;;;;;20565176;28;20232;-73
2023/07/29 03:41:57;;;;;;;2.10;0.60;;;;;;;;;;20558380;28;20260;-74
2023/07/29 03:51:59;;;;;;;2.47;0.90;;;;;;;;;;20594174;28;20598;-74
2023/07/29 04:02:01;;;;;;;1.50;0.80;;;;;;;;;;20558385;28;20223;-74
2023/07/29 04:12:03;;;;;;;0.63;0.43;;;;;;;;;;20562620;28;20281;-74
2023/07/29 04:22:04;;;;;;;0.97;0.70;;;;;;;;;;20545275;28;20295;-74
2023/07/29 04:32:07;;;;;;;1.00;0.77;;;;;;;;;;20572719;28;20305;-74
2023/07/29 04:42:08;;;;;;;1.40;0.73;;;;;;;;;;20559435;28;20231;-74
2023/07/29 04:52:10;;;;;;;1.00;0.70;;;;;;;;;;20565042;28;20309;-73
2023/07/29 05:02:12;;;;;;;0.80;0.63;;;;;;;;;;20570264;28;20573;-74
2023/07/29 05:12:14;;;;;;;0.27;0.27;;;;;;;;;;20574475;28;20304;-74
2023/07/29 05:22:16;;;;;;;0.37;0.37;;;;;;;;;;20541563;28;20735;-74
2023/07/29 05:32:18;;;;;;;0.73;0.50;;;;;;;;;;20556005;28;20712;-74
2023/07/29 05:42:20;;;;;;;0.57;0.40;;;;;;;;;;20565750;28;20221;-74
2023/07/29 05:52:22;;;;;;;1.07;0.47;;;;;;;;;;20579558;28;20239;-73
2023/07/29 06:02:23;;;;;;;0.70;0.40;;;;;;;;;;20572187;28;20282;-73
2023/07/29 06:12:25;;;;;;;1.60;0.50;;;;;;;;;;20560096;28;20536;-73
2023/07/29 06:22:27;;;;;;;1.53;0.50;;;;;;;;;;20564135;28;20286;-73
2023/07/29 06:32:29;;;;;;;0.80;0.40;;;;;;;;;;20570244;28;20231;-72
2023/07/29 06:42:30;;;;;;;1.23;0.60;;;;;;;;;;20587450;28;20259;-73
2023/07/29 06:52:32;;;;;;;0.70;0.50;;;;;;;;;;20599672;28;20228;-72
2023/07/29 07:02:34;;;;;;;0.90;0.60;;;;;;;;;;20574534;28;20278;-73
2023/07/29 07:12:36;;;;;;;1.33;0.60;;;;;;;;;;20587621;28;20262;-72
2023/07/29 07:22:37;;;;;;;1.10;0.50;;;;;;;;;;20583338;28;20213;-73
2023/07/29 07:32:39;;;;;;;1.27;0.50;;;;;;;;;;20566105;28;20635;-72
2023/07/29 07:42:40;;;;;;;1.13;0.40;;;;;;;;;;20566361;28;20244;-73
2023/07/29 07:52:42;;;;;;;0.70;0.40;;;;;;;;;;20588734;28;20221;-73
2023/07/29 08:02:44;;;;;;;0.60;0.50;;;;;;;;;;20581713;28;20222;-73
2023/07/29 08:12:46;;;;;;;0.80;0.57;;;;;;;;;;20581335;28;20226;-73
2023/07/29 08:22:48;;;;;;;0.83;0.60;;;;;;;;;;20579987;28;20272;-74
2023/07/29 08:32:50;;;;;;;1.20;0.70;;;;;;;;;;20547242;28;20790;-74
2023/07/29 08:42:52;;;;;;;1.33;0.40;;;;;;;;;;20557567;28;20236;-74
2023/07/29 08:52:54;;;;;;;0.57;0.40;;;20.80;99.90;;;;;;20587823;28;20256;-75
2023/07/29 09:03:02;;;;;;;1.03;0.60;;;;;;;;;;20582372;28;20295;-75
2023/07/29 09:13:05;;;;;;;0.60;0.43;;;21.50;99.90;;;;;;20571562;28;20695;-76
2023/07/29 09:23:10;;;;;;;1.23;0.60;;;22.40;99.90;;;;;;20595958;28;20691;-76
2023/07/29 09:33:13;;;;;;;0.57;0.50;;;;;;;;;;20614906;28;20223;-75
2023/07/29 09:43:17;;;;;;;0.73;0.50;;;23.10;99.90;;;;;;20638569;28;20399;-76
2023/07/29 09:53:19;;;;;;;0.80;0.57;;;;;;;;;;20703865;23;20365;-79
2023/07/29 10:03:21;;;;;;;0.63;0.40;;;;;;;;;;20841458;28;20319;-78
2023/07/29 10:13:26;;;;;;;2.97;0.60;;;;;;;;;;20810209;28;20236;-79
2023/07/29 10:23:33;;;;;;;0.95;0.50;;;;;;;;;;20818167;28;20238;-80
2023/07/29 10:33:35;;;;;;;0.82;0.38;;;;;;;;;;20797968;28;20303;-77
2023/07/29 10:43:38;;;;;;;1.08;0.40;;;;;;;;;;20781663;28;20226;-78
2023/07/29 10:53:40;;;;;;;0.88;0.38;;;;;;;;;;20825609;28;20233;-82
2023/07/29 11:04:25;;;;;;;0.70;0.40;;;24.90;99.90;;;;;;20801489;28;20230;-78
2023/07/29 11:14:27;;;;;;;0.75;0.40;;;;;;;;;;20828839;28;20221;-78
2023/07/29 11:24:29;;;;;;;0.40;0.30;;;;;;;;;;20822533;28;20267;-77
2023/07/29 11:34:32;;;;;;;0.50;0.30;;;;;;;;;;20827057;28;20283;-81
2023/07/29 11:44:34;;;;;;;2.50;0.43;;;;;;;;;;20785157;28;20221;-77
2023/07/29 11:54:37;;;;;;;1.52;0.95;;;25.80;99.90;;;;;;20815062;28;20230;-77
2023/07/29 12:04:39;;;;;;;0.52;0.40;;;;;;;;;;20808321;28;20318;-77
2023/07/29 12:14:43;;;;;;;0.60;0.50;;;;;;;;;;20806854;28;20241;-81
2023/07/29 12:24:45;;;;;;;0.70;0.43;;;;;;;;;;20814317;28;20287;-77
2023/07/29 12:34:48;;;;;;;0.70;0.40;;;;;;;;;;20815315;28;20394;-79
2023/07/29 12:44:49;;;;;;;2.28;0.40;;;;;;;;;;20822479;28;20260;-77
2023/07/29 12:54:51;;;;;;;1.88;0.40;;;;;;;;;;20801227;28;20295;-79
2023/07/29 13:04:53;;;;;;;0.30;0.30;;;;;;;;;;20802237;28;20299;-78
2023/07/29 13:14:55;;;;;;;0.60;0.50;;;;;;;;;;20798681;28;20238;-76
2023/07/29 13:24:57;;;;;;;2.60;1.02;;;;;;;;;;20818981;28;20302;-79
2023/07/29 13:34:59;;;;;;;0.47;0.40;;;;;;;;;;20820416;28;20252;-78
2023/07/29 13:45:01;;;;;;;2.60;0.50;;;;;;;;;;20818471;28;20295;-78
2023/07/29 13:55:04;;;;;;;0.90;0.50;;;;;;;;;;20819918;28;20241;-80
2023/07/29 14:05:07;;;;;;;1.42;0.60;;;;;;;;;;20823708;28;20235;-79
2023/07/29 14:15:09;;;;;;;1.40;0.50;;;;;;;;;;20818297;28;20246;-80
2023/07/29 14:25:11;;;;;;;0.60;0.30;;;;;;;;;;20824925;28;20220;-78
2023/07/29 14:35:14;;;;;;;1.00;0.40;;;;;;;;;;20834486;28;20238;-82
2023/07/29 14:45:16;;;;;;;1.08;0.40;;;;;;;;;;20822398;28;20700;-78
2023/07/29 14:55:18;;;;;;;0.85;0.50;;;;;;;;;;20820277;28;20234;-77
2023/07/29 15:05:20;;;;;;;0.50;0.38;;;;;;;;;;20820909;28;20720;-76
2023/07/29 15:15:21;;;;;;;1.20;0.40;;;;;;;;;;20830847;28;20234;-76
2023/07/29 15:25:23;;;;;;;0.68;0.30;;;;;;;;;;20831163;28;20256;-76
2023/07/29 15:35:26;;;;;;;2.30;0.50;;;;;;;;;;20831590;28;20723;-78
2023/07/29 15:45:28;;;;;;;0.50;0.40;;;;;;;;;;20912172;28;20772;-78
2023/07/29 15:55:30;;;;;;;1.33;0.40;;;;;;;;;;20913182;28;20234;-78
2023/07/29 16:05:32;;;;;;;1.38;0.50;;;;;;;;;;20911357;28;20220;-76
2023/07/29 16:15:34;;;;;;;1.00;0.40;;;;;;;;;;20909883;28;20240;-81
2023/07/29 16:25:36;;;;;;;0.50;0.30;;;;;;;;;;20923483;28;20244;-78
2023/07/29 16:35:37;;;;;;;1.33;0.57;;;;;;;;;;20908699;28;20572;-78
2023/07/29 16:45:39;;;;;;;0.90;0.57;;;;;;;;;;20890379;28;20592;-79
2023/07/29 16:55:41;;;;;;;2.20;0.35;;;25.80;99.90;;;;;;20895538;28;20281;-79
2023/07/29 17:05:43;;;;;;;2.60;0.60;;;;;;;;;;20905874;28;20229;-78
2023/07/29 17:15:45;;;;;;;1.33;0.65;;;;;;;;;;20894143;28;20649;-79
2023/07/29 17:25:46;;;;;;;1.77;0.50;;;;;;;;;;20896418;28;20251;-82
2023/07/29 17:35:50;;;;;;;1.38;0.50;;;;;;;;;;20891279;28;20302;-79
2023/07/29 17:45:52;;;;;;;0.82;0.50;;;;;;;;;;20903339;28;20229;-78
2023/07/29 17:55:54;;;;;;;0.93;0.60;;;;;;;;;;20905501;28;20231;-78
2023/07/29 18:05:56;;;;;;;0.63;0.50;;;25.10;99.90;;;;;;20904526;28;20274;-78
2023/07/29 18:15:58;;;;;;;1.45;0.60;;;;;;;;;;20902106;28;20290;-79
2023/07/29 18:25:59;;;;;;;0.30;0.30;;;;;;;;;;20868256;28;20236;-77
2023/07/29 18:36:03;;;;;;;0.45;0.40;;;;;;;;;;20861984;28;20237;-78
2023/07/29 18:46:05;;;;;;;0.73;0.40;;;;;;;;;;20898008;28;20622;-79
2023/07/29 18:56:07;;;;;;;0.90;0.40;;;;;;;;;;20855650;28;20825;-79
2023/07/29 19:06:10;;;;;;;0.60;0.43;;;;;;;;;;20883619;28;20244;-78
2023/07/29 19:16:19;;;;;;;0.98;0.50;;;;;;;;;;20874430;28;20305;-78
2023/07/29 19:26:22;;;;;;;1.02;0.65;;;;;;;;;;20895916;28;20594;-79
2023/07/29 19:36:24;;;;;;;0.80;0.47;;;;;;;;;;20894658;28;20301;-78
2023/07/29 19:46:25;;;;;;;1.13;0.68;;;;;;;;;;20914621;28;20228;-79
2023/07/29 19:56:27;;;;;;;0.73;0.60;;;;;;;;;;20900047;28;20237;-81
2023/07/29 20:06:29;;;;;;;1.10;0.70;;;;;;;;;;20863498;28;20212;-79
2023/07/29 20:16:33;;;;;;;0.82;0.50;;;;;;;;;;20909196;28;20236;-79
2023/07/29 20:26:35;;;;;;;2.47;0.60;;;;;;;;;;20909906;28;20216;-81
2023/07/29 20:36:37;;;;;;;0.82;0.57;;;;;;;;;;20917676;28;20642;-80
2023/07/29 20:46:40;;;;;;;1.55;0.60;;;;;;;;;;20905234;28;20293;-80
2023/07/29 20:56:41;;;;;;;0.77;0.52;;;;;;;;;;20883876;28;20239;-79
2023/07/29 21:06:43;;;;;;;0.88;0.60;;;;;;;;;;20887490;28;20221;-81
2023/07/29 21:16:45;;;;;;;1.63;0.80;;;;;;;;;;20855026;28;20289;-80
2023/07/29 21:26:46;;;;;;;1.10;0.65;;;;;;;;;;20888465;28;20233;-79
2023/07/29 21:36:49;;;;;;;1.10;0.60;;;;;;;;;;20901510;28;20657;-80
2023/07/29 21:46:50;;;;;;;1.27;0.70;;;;;;;;;;20898715;28;20219;-79
2023/07/29 21:56:52;;;;;;;0.95;0.60;;;;;;;;;;20882025;28;20241;-78
2023/07/29 22:06:54;;;;;;;0.40;0.30;;;;;;;;;;20889256;28;20223;-83
2023/07/29 22:16:56;;;;;;;0.50;0.30;;;;;;;;;;20904673;28;20234;-81
2023/07/29 22:26:59;;;;;;;0.38;0.30;;;;;;;;;;20902914;28;20253;-77
2023/07/29 22:37:01;;;;;;;3.05;0.43;;;;;;;;;;20877700;28;20631;-81
2023/07/29 22:47:03;;;;;;;0.40;0.40;;;;;;;;;;20903466;28;20268;-81
2023/07/29 22:57:05;;;;;;;0.68;0.30;;;;;;;;;;20921165;28;20232;-77
2023/07/29 23:07:06;;;;;;;0.45;0.30;;;;;;;;;;20896484;28;20230;-78
2023/07/29 23:17:08;;;;;;;0.73;0.30;;;;;;;;;;20896093;28;20262;-79
2023/07/29 23:27:10;;;;;;;0.30;0.30;;;;;;;;;;20912275;28;20224;-79
2023/07/29 23:37:12;;;;;;;0.90;0.30;;;;;;;;;;20902278;28;20268;-79
2023/07/29 23:47:13;;;;;;;0.70;0.40;;;;;;;;;;20915780;28;20222;-80
2023/07/29 23:57:15;;;;;;;0.47;0.30;;;;;;;;;;20886255;28;20237;-77
